Felts Field
KSFF : now visible

Aeroporto :











RITROVATECI SU...

 
LOGIN :

Iscrizione | Disclaimer

   EN    FR    IT 

 









Sommario :    VFR   VFR Marginale   IFR   IFR Intensivo   IFR Molto Intensivo
Visibilità : 
Base nubi : 
>= 8 km
>= 3000ft
5 / 8 km
1000 / 3000 ft
1500m / 5 km
500 / 1000 ft
800 / 1500m
200 / 500 ft
< 800m
< 200 ft
Simboli :   Temporali  Nebbia  Neve Forte  Precipitazioni Forti  Vento > 20 kt






- Altitudine del aeroporto : 1953 ft


KSFF - Felts Field

ULTIMO METAR :
  • 221253Z AUTO 00000KT 9SM BKN004 M02/M04 A3020 RMK AO2 SNE17 CIG 004V008 SLP245 P0000 T10221039

METARs OBSOLETI :
  • 221232Z AUTO 00000KT 7SM BKN004 M02/M04 A3019 RMK AO2 SNE17 P0000 T10221039
  • 221224Z AUTO 00000KT 7SM BKN005 M03/M04 A3018 RMK AO2 SNE17 P0000 T10281039
  • 221208Z AUTO 05003KT 7SM -SN FEW005 M03/M05 A3017 RMK AO2 P0000 T10331050
  • 221153Z AUTO 07004KT 7SM -SN CLR M03/M05 A3017 RMK AO2 SNB45 SLP232 P0000 60000 I1000 I6002 T10331050 11011 21039 50004
  • 221053Z AUTO 00000KT 6SM BR CLR M03/M04 A3017 RMK AO2 SLP231 T10281039

TAF KSFF
Valido dal 22 a 12 ore il 23 a 12 ore UTC


221129Z 2212/2312 VRB03KT 6SM BR FEW200
FM221400 VRB02KT 2SM BR SCT003
FM221800 21003KT P6SM FEW015 SCT250
FM230600 VRB02KT P6SM BKN250



MetMap, La meteo Aeronautica in un colpo d'occhio ! - Copyright ORBIFLY Dicembre 2007 - Disclaimer

ORBIFLY MET'MAP TEAM :

Programmazione e sviluppo : Alexandra Zaïnal
Concezione e sviluppo : Baudouin d'Aumeries
Co-Programmazione e sviluppo : Marc-Olivier Méhu
Supporto tecnico e logistico : Manuel Goepfert
Aiuto per la traduzione : Arnaldo La Scala

Contatto : metmap@orbifly.com




FONTI E CREDITI :

   NOAA       Earth
Advisory